Time;durP1;ratioP1;P1;durP2;ratioP2;P2;SDS_P1;SDS_P2;PMS_P1;PMS_P2;Temp;Humidity;BMP_temperature;BMP_pressure;BME280_temperature;BME280_humidity;BME280_pressure;Samples;Min_cycle;Max_cycle;Signal;HPM_P1;HPM_P2
2022/07/31 00:00:48;;;;;;;6.00;4.28;;;;;;;;;;5001504;28;20137;-62
2022/07/31 00:03:15;;;;;;;8.18;4.53;;;;;;;;;;5000522;28;20132;-62
2022/07/31 00:05:41;;;;;;;8.93;4.68;;;;;;;;;;4998985;28;20529;-61
2022/07/31 00:08:08;;;;;;;7.90;4.15;;;;;;;;;;4998739;28;20046;-61
2022/07/31 00:10:34;;;;;;;9.02;4.03;;;;;;;;;;4997188;28;20092;-61
2022/07/31 00:13:01;;;;;;;9.98;3.88;;;;;;;;;;4998900;28;20447;-61
2022/07/31 00:15:28;;;;;;;8.60;3.78;;;;;;;;;;4997253;28;20052;-61
2022/07/31 00:17:54;;;;;;;9.38;3.90;;;;;;;;;;4998611;28;20045;-60
2022/07/31 00:20:21;;;;;;;8.73;4.13;;;;;;;;;;4998249;28;20057;-60
2022/07/31 00:22:49;;;;;;;7.35;4.07;;;;;;;;;;4998293;28;20065;-60
2022/07/31 00:25:17;;;;;;;7.40;3.95;;;;;;;;;;4999547;28;20077;-59
2022/07/31 00:27:44;;;;;;;6.63;3.45;;;;;;;;;;5000395;28;20038;-61
2022/07/31 00:30:15;;;;;;;6.13;3.50;;;;;;;;;;5000833;28;20134;-61
2022/07/31 00:32:42;;;;;;;6.53;3.28;;;;;;;;;;4999878;28;20042;-61
2022/07/31 00:35:10;;;;;;;4.32;2.50;;;;;;;;;;4999020;28;20842;-62
2022/07/31 00:37:37;;;;;;;4.95;2.70;;;;;;;;;;4998983;28;20400;-62
2022/07/31 00:40:07;;;;;;;4.60;2.50;;;;;;;;;;5000632;28;20040;-61
2022/07/31 00:42:34;;;;;;;6.78;2.58;;;;;;;;;;4998721;28;20531;-61
2022/07/31 00:45:00;;;;;;;5.07;2.25;;;;;;;;;;4999016;28;20409;-61
2022/07/31 00:47:27;;;;;;;5.03;2.15;;;;;;;;;;5000007;28;20091;-61
2022/07/31 00:49:54;;;;;;;4.38;2.40;;;;;;;;;;5001675;28;20074;-60
2022/07/31 00:52:21;;;;;;;6.60;3.83;;;;;;;;;;4999764;28;20125;-63
2022/07/31 00:54:47;;;;;;;7.90;2.70;;;;;;;;;;4999530;28;20169;-62
2022/07/31 00:57:14;;;;;;;4.97;2.47;;;;;;;;;;5015271;28;20168;-62
2022/07/31 00:59:42;;;;;;;5.75;2.55;;;;;;;;;;5002119;28;20045;-61
2022/07/31 01:02:09;;;;;;;5.57;3.03;;;;;;;;;;5005278;28;20049;-63
2022/07/31 01:04:35;;;;;;;7.95;2.90;;;;;;;;;;5002256;28;20380;-62
2022/07/31 01:07:02;;;;;;;9.48;3.60;;;;;;;;;;5002427;28;20069;-62
2022/07/31 01:09:29;;;;;;;7.05;3.20;;;;;;;;;;5002619;28;20045;-62
2022/07/31 01:12:14;;;;;;;5.72;3.40;;;;;;;;;;5018833;28;20096;-61
2022/07/31 01:14:46;;;;;;;9.90;3.88;;;;;;;;;;5001700;28;20096;-61
2022/07/31 01:17:12;;;;;;;10.95;4.22;;;;;;;;;;5003740;28;20124;-61
2022/07/31 01:19:41;;;;;;;8.52;4.85;;;;;;;;;;5001712;28;20107;-62
2022/07/31 01:22:25;;;;;;;7.57;4.70;;;;;;;;;;5002886;28;20060;-61
2022/07/31 01:25:05;;;;;;;10.07;4.47;;;;;;;;;;4993950;28;20416;-62
2022/07/31 01:27:39;;;;;;;9.40;4.63;;;;;;;;;;5016011;28;20049;-62
2022/07/31 01:30:06;;;;;;;8.85;4.70;;;;;;;;;;5004675;28;20042;-63
2022/07/31 01:32:37;;;;;;;6.43;4.25;;;;;;;;;;5000473;28;20038;-62
2022/07/31 01:35:07;;;;;;;9.60;4.90;;;;;;;;;;5000607;28;21885;-62
2022/07/31 01:37:36;;;;;;;10.02;5.30;;;;;;;;;;5001859;28;20097;-62
2022/07/31 01:40:05;;;;;;;10.45;4.43;;;;;;;;;;5004089;28;20081;-62
2022/07/31 01:42:34;;;;;;;8.07;4.18;;;;;;;;;;5009417;28;20057;-63
2022/07/31 01:45:01;;;;;;;5.85;2.40;;;;;;;;;;5013664;28;20037;-63
2022/07/31 01:47:29;;;;;;;7.93;2.72;;;;;;;;;;5008870;28;20053;-62
2022/07/31 01:49:57;;;;;;;16.17;2.80;;;;;;;;;;5011394;28;20037;-62
2022/07/31 01:52:25;;;;;;;10.95;3.20;;;;;;;;;;5005070;28;20121;-62
2022/07/31 01:54:54;;;;;;;6.43;2.85;;;;;;;;;;5008731;28;20052;-62
2022/07/31 01:57:23;;;;;;;6.40;3.63;;;;;;;;;;5003799;28;20038;-62
2022/07/31 01:59:50;;;;;;;9.77;3.13;;;;;;;;;;5012473;28;20030;-62
2022/07/31 02:02:18;;;;;;;6.38;3.67;;;;;;;;;;5008215;28;20052;-61
2022/07/31 02:04:45;;;;;;;6.20;3.28;;;;;;;;;;5006485;28;20037;-60
2022/07/31 02:07:14;;;;;;;7.00;3.40;;;;;;;;;;5033957;28;21020;-59
2022/07/31 02:09:42;;;;;;;6.60;3.40;;;;;;;;;;5016452;28;20070;-59
2022/07/31 02:12:10;;;;;;;6.95;3.17;;;;;;;;;;5000281;28;20037;-63
2022/07/31 02:14:39;;;;;;;6.80;3.60;;;;;;;;;;5000636;28;20606;-62
2022/07/31 02:17:07;;;;;;;6.72;2.90;;;;;;;;;;5013590;28;20049;-60
2022/07/31 02:19:36;;;;;;;6.32;3.08;;;;;;;;;;5002417;28;20172;-58
2022/07/31 02:22:02;;;;;;;6.03;3.40;;;;;;;;;;5003392;28;20034;-60
2022/07/31 02:24:29;;;;;;;9.60;4.32;;;;;;;;;;5002047;28;20115;-61
2022/07/31 02:26:57;;;;;;;9.77;4.35;;;;;;;;;;5002579;28;20464;-59
2022/07/31 02:29:24;;;;;;;7.90;3.70;;;;;;;;;;5001844;28;20038;-60
2022/07/31 02:31:54;;;;;;;7.40;4.15;;;;;;;;;;5002958;28;20471;-60
2022/07/31 02:34:22;;;;;;;8.35;3.67;;;;;;;;;;5000975;28;20054;-61
2022/07/31 02:36:49;;;;;;;7.72;3.38;;;;;;;;;;5001048;28;20104;-60
2022/07/31 02:39:16;;;;;;;6.70;3.25;;;;;;;;;;5001467;28;20443;-61
2022/07/31 02:41:44;;;;;;;5.75;2.72;;;;;;;;;;5001402;28;20030;-60
2022/07/31 02:44:14;;;;;;;5.93;3.20;;;;;;;;;;4998842;28;20050;-59
2022/07/31 02:46:43;;;;;;;6.90;3.22;;;;;;;;;;4998710;28;20091;-61
2022/07/31 02:49:12;;;;;;;9.20;3.55;;;;;;;;;;5000599;28;20074;-59
2022/07/31 02:51:40;;;;;;;85.25;27.67;;;;;;;;;;4999639;28;20041;-60
2022/07/31 02:54:06;;;;;;;26.40;11.85;;;;;;;;;;4999640;28;20054;-60
2022/07/31 02:56:33;;;;;;;14.25;6.22;;;;;;;;;;4999804;28;20149;-60
2022/07/31 02:59:01;;;;;;;11.48;4.30;;;;;;;;;;4996789;28;20511;-60
2022/07/31 03:01:28;;;;;;;11.80;4.75;;;;;;;;;;4999923;28;20046;-61
2022/07/31 03:03:54;;;;;;;10.60;5.28;;;;;;;;;;5000483;28;20073;-60
2022/07/31 03:06:21;;;;;;;9.38;5.10;;;;;;;;;;4999905;28;20072;-59
2022/07/31 03:08:48;;;;;;;7.35;3.90;;;;;;;;;;5000641;28;20046;-59
2022/07/31 03:11:14;;;;;;;9.02;4.38;;;;;;;;;;5002318;28;20037;-59
2022/07/31 03:13:42;;;;;;;8.30;4.03;;;;;;;;;;4997468;28;20435;-60
2022/07/31 03:16:13;;;;;;;6.90;3.70;;;;;;;;;;5007928;28;20049;-60
2022/07/31 03:18:40;;;;;;;5.72;3.35;;;;;;;;;;4998815;28;20808;-60
2022/07/31 03:21:09;;;;;;;5.78;3.38;;;;;;;;;;5000506;28;20057;-60
2022/07/31 03:23:36;;;;;;;5.85;3.50;;;;;;;;;;4997792;28;20068;-60
2022/07/31 03:26:03;;;;;;;8.40;4.05;;;;;;;;;;4998677;28;20038;-59
2022/07/31 03:28:30;;;;;;;7.05;3.70;;;;;;;;;;4998907;28;20076;-60
2022/07/31 03:30:56;;;;;;;6.80;3.53;;;;;;;;;;4999619;28;20034;-62
2022/07/31 03:33:23;;;;;;;11.70;5.55;;;;;;;;;;4998243;28;20050;-62
2022/07/31 03:35:50;;;;;;;8.68;3.60;;;;;;;;;;5000042;28;20104;-60
2022/07/31 03:38:16;;;;;;;7.70;4.03;;;;;;;;;;4999551;28;20336;-58
2022/07/31 03:40:43;;;;;;;7.63;3.72;;;;;;;;;;4997671;28;20034;-60
2022/07/31 03:43:10;;;;;;;6.75;3.70;;;;;;;;;;5030984;28;20052;-60
2022/07/31 03:45:38;;;;;;;7.43;3.33;;;;;;;;;;4999161;28;20054;-61
2022/07/31 03:48:05;;;;;;;9.93;3.55;;;;;;;;;;5000301;28;20700;-60
2022/07/31 03:50:32;;;;;;;9.20;3.63;;;;;;;;;;4998529;28;20500;-59
2022/07/31 03:52:59;;;;;;;6.32;3.42;;;;;;;;;;4999515;28;20061;-60
2022/07/31 03:55:25;;;;;;;6.07;3.50;;;;;;;;;;4999346;28;20041;-59
2022/07/31 03:57:52;;;;;;;8.05;3.58;;;;;;;;;;5001057;28;20084;-59
2022/07/31 04:00:21;;;;;;;5.90;3.25;;;;;;;;;;5014658;28;20128;-60
2022/07/31 04:02:48;;;;;;;6.72;3.40;;;;;;;;;;4989470;28;20602;-60
2022/07/31 04:05:15;;;;;;;7.50;4.10;;;;;;;;;;4997986;28;20040;-60
2022/07/31 04:07:41;;;;;;;6.80;4.00;;;;;;;;;;4998393;28;20073;-59
2022/07/31 04:10:08;;;;;;;6.38;3.70;;;;;;;;;;5013967;28;20073;-59
2022/07/31 04:12:34;;;;;;;5.55;3.40;;;;;;;;;;4997711;28;20496;-61
2022/07/31 04:15:01;;;;;;;8.45;3.42;;;;;;;;;;4998534;28;20499;-60
2022/07/31 04:17:28;;;;;;;7.75;3.92;;;;;;;;;;4995364;28;20053;-58
2022/07/31 04:19:54;;;;;;;8.77;3.67;;;;;;;;;;4999523;28;20053;-58
2022/07/31 04:22:21;;;;;;;10.45;3.72;;;;;;;;;;4998582;28;20041;-59
2022/07/31 04:24:47;;;;;;;6.15;3.65;;;;;;;;;;4998233;28;20125;-58
2022/07/31 04:27:17;;;;;;;8.15;3.83;;;;;;;;;;4998848;28;20038;-59
2022/07/31 04:29:44;;;;;;;6.35;3.92;;;;;;;;;;4998137;28;20045;-59
2022/07/31 04:32:11;;;;;;;7.43;4.20;;;;;;;;;;5000148;28;20119;-60
2022/07/31 04:34:38;;;;;;;7.93;4.50;;;;;;;;;;4998356;28;20563;-59
2022/07/31 04:37:05;;;;;;;7.45;4.10;;;;;;;;;;5002801;28;20048;-60
2022/07/31 04:39:31;;;;;;;6.80;3.80;;;;;;;;;;5002814;28;21706;-61
2022/07/31 04:41:58;;;;;;;7.68;4.38;;;;;;;;;;5004354;28;20715;-59
2022/07/31 04:44:25;;;;;;;8.55;4.28;;;;;;;;;;5002152;28;20034;-60
2022/07/31 04:46:51;;;;;;;6.10;4.07;;;;;;;;;;5004698;28;20038;-60
2022/07/31 04:49:18;;;;;;;7.90;4.35;;;;;;;;;;5003779;28;20034;-62
2022/07/31 04:51:44;;;;;;;9.63;4.93;;;;;;;;;;4994259;28;20048;-61
2022/07/31 04:54:11;;;;;;;7.65;4.75;;;;;;;;;;5001684;28;20069;-62
2022/07/31 04:56:41;;;;;;;7.40;4.30;;;;;;;;;;5002100;28;20064;-61
2022/07/31 04:59:10;;;;;;;8.07;4.88;;;;;;;;;;5002714;28;20531;-62
2022/07/31 05:01:37;;;;;;;8.30;5.10;;;;;;;;;;5001943;28;20037;-61
2022/07/31 05:04:04;;;;;;;8.73;5.05;;;;;;;;;;5002178;28;20034;-60
2022/07/31 05:06:38;;;;;;;9.57;5.60;;;;;;;;;;4997648;28;20052;-61
2022/07/31 05:09:06;;;;;;;8.10;4.97;;;;;;;;;;5001670;28;20052;-61
2022/07/31 05:11:33;;;;;;;9.50;5.95;;;;;;;;;;5001955;28;20046;-61
2022/07/31 05:14:00;;;;;;;10.35;5.95;;;;;;;;;;5001335;28;20050;-61
2022/07/31 05:16:28;;;;;;;11.30;6.35;;;;;;;;;;4998391;28;20034;-61
2022/07/31 05:18:55;;;;;;;12.63;6.82;;;;;;;;;;4999124;28;20878;-61
2022/07/31 05:21:22;;;;;;;11.73;6.45;;;;;;;;;;5000408;28;20038;-60
2022/07/31 05:23:49;;;;;;;11.20;6.35;;;;;;;;;;4998934;28;20096;-61
2022/07/31 05:26:17;;;;;;;10.68;5.80;;;;;;;;;;4999822;28;20049;-61
2022/07/31 05:28:44;;;;;;;9.80;6.60;;;;;;;;;;5000156;28;20125;-61
2022/07/31 05:31:11;;;;;;;12.63;7.18;;;;;;;;;;5000709;28;20050;-61
2022/07/31 05:33:38;;;;;;;10.85;6.40;;;;;;;;;;4999713;28;20062;-61
2022/07/31 05:36:05;;;;;;;13.75;6.95;;;;;;;;;;5001012;28;20042;-60
2022/07/31 05:38:32;;;;;;;11.45;7.07;;;;;;;;;;4999946;28;20045;-61
2022/07/31 05:40:58;;;;;;;11.40;6.57;;;;;;;;;;5000073;28;20076;-61
2022/07/31 05:43:25;;;;;;;12.35;6.20;;;;;;;;;;4997433;28;20049;-61
2022/07/31 05:45:51;;;;;;;11.25;6.55;;;;;;;;;;5000358;28;20041;-61
2022/07/31 05:48:18;;;;;;;10.35;6.40;;;;;;;;;;4997746;28;20097;-61
2022/07/31 05:50:46;;;;;;;12.43;6.65;;;;;;;;;;5002396;28;20038;-61
2022/07/31 05:53:15;;;;;;;13.48;7.13;;;;;;;;;;5000147;28;20050;-61
2022/07/31 05:55:43;;;;;;;14.18;6.90;;;;;;;;;;4997550;28;20126;-61
2022/07/31 05:58:10;;;;;;;10.02;6.28;;;;;;;;;;5000492;28;20976;-61
2022/07/31 06:00:36;;;;;;;16.10;7.05;;;;;;;;;;5000435;28;20519;-62
2022/07/31 06:03:04;;;;;;;12.35;7.50;;;;;;;;;;5008855;28;20416;-62
2022/07/31 06:05:31;;;;;;;11.45;6.97;;;;;;;;;;4998944;28;20050;-61
2022/07/31 06:07:58;;;;;;;13.40;7.00;;;;;;;;;;5000095;28;20042;-60
2022/07/31 06:10:25;;;;;;;10.70;6.55;;;;;;;;;;4998297;28;20045;-62
2022/07/31 06:12:51;;;;;;;10.93;6.70;;;;;;;;;;4998631;28;20057;-61
2022/07/31 06:15:18;;;;;;;14.55;7.25;;;;;;;;;;4998760;28;20042;-61
2022/07/31 06:17:45;;;;;;;18.63;8.10;;;;;;;;;;4999124;28;20038;-61
2022/07/31 06:20:11;;;;;;;11.20;7.43;;;;;;;;;;5000407;28;20091;-61
2022/07/31 06:22:39;;;;;;;12.95;8.20;;;;;;;;;;4996262;28;20409;-61
2022/07/31 06:25:09;;;;;;;12.98;8.75;;;;;;;;;;4998127;28;20633;-61
2022/07/31 06:27:35;;;;;;;14.10;8.45;;;;;;;;;;4997655;28;20042;-61
2022/07/31 06:30:05;;;;;;;16.13;8.68;;;;;;;;;;4998872;28;20409;-61
2022/07/31 06:32:34;;;;;;;13.40;9.13;;;;;;;;;;4999502;28;20148;-61
2022/07/31 06:35:02;;;;;;;14.95;9.00;;;;;;;;;;5000187;28;20049;-59
2022/07/31 06:37:28;;;;;;;11.93;8.25;;;;;;;;;;4999351;28;21822;-60
2022/07/31 06:39:55;;;;;;;14.18;9.10;;;;;;;;;;4997993;28;20703;-60
2022/07/31 06:42:22;;;;;;;15.38;9.23;;;;;;;;;;4999138;28;20060;-60
2022/07/31 06:44:49;;;;;;;13.82;9.15;;;;;;;;;;4999062;28;20037;-61
2022/07/31 06:47:19;;;;;;;14.50;9.48;;;;;;;;;;4998910;28;20034;-61
2022/07/31 06:49:46;;;;;;;17.63;9.05;;;;;;;;;;4997929;28;20056;-60
2022/07/31 06:52:12;;;;;;;15.77;9.10;;;;;;;;;;4998812;28;20062;-60
2022/07/31 06:54:39;;;;;;;13.38;9.07;;;;;;;;;;4995680;28;21024;-61
2022/07/31 06:57:06;;;;;;;15.18;9.25;;;;;;;;;;4996769;28;20420;-60
2022/07/31 06:59:32;;;;;;;16.23;10.13;;;;;;;;;;4997272;28;20732;-61
2022/07/31 07:01:59;;;;;;;15.40;9.75;;;;;;;;;;4996334;28;20046;-61
2022/07/31 07:04:26;;;;;;;14.27;8.82;;;;;;;;;;4995254;28;20120;-61
2022/07/31 07:06:52;;;;;;;14.27;8.75;;;;;;;;;;4997094;28;20073;-59
2022/07/31 07:09:19;;;;;;;14.68;9.70;;;;;;;;;;4995415;28;20038;-61
2022/07/31 07:11:46;;;;;;;15.30;9.40;;;;;;;;;;4995804;28;20409;-60
2022/07/31 07:14:12;;;;;;;14.38;8.88;;;;;;;;;;4998141;28;20470;-62
2022/07/31 07:16:39;;;;;;;15.80;8.90;;;;;;;;;;4998686;28;20484;-60
2022/07/31 07:19:06;;;;;;;15.55;8.48;;;;;;;;;;4999128;28;20152;-60
2022/07/31 07:21:33;;;;;;;17.52;8.93;;;;;;;;;;4997134;28;20038;-60
2022/07/31 07:23:59;;;;;;;18.15;8.63;;;;;;;;;;4997226;28;20056;-60
2022/07/31 07:26:26;;;;;;;16.30;9.02;;;;;;;;;;4996197;28;20594;-60
2022/07/31 07:28:52;;;;;;;11.75;7.97;;;;;;;;;;4997402;28;20497;-60
2022/07/31 07:31:19;;;;;;;15.73;8.80;;;;;;;;;;4996895;28;20041;-60
2022/07/31 07:33:46;;;;;;;16.65;8.90;;;;;;;;;;4994109;28;20056;-59
2022/07/31 07:36:13;;;;;;;13.95;7.97;;;;;;;;;;4997422;28;20076;-59
2022/07/31 07:38:39;;;;;;;12.40;8.23;;;;;;;;;;4996042;28;20038;-60
2022/07/31 07:41:06;;;;;;;15.23;9.35;;;;;;;;;;4996466;28;20034;-59
2022/07/31 07:43:32;;;;;;;13.18;8.55;;;;;;;;;;4996223;28;20400;-60
2022/07/31 07:45:59;;;;;;;13.80;8.27;;;;;;;;;;4997147;28;20116;-59
2022/07/31 07:48:26;;;;;;;16.60;8.80;;;;;;;;;;4995964;28;20038;-60
2022/07/31 07:50:52;;;;;;;14.20;8.52;;;;;;;;;;4995324;28;20042;-60
2022/07/31 07:53:19;;;;;;;13.02;8.27;;;;;;;;;;4994281;28;20141;-59
2022/07/31 07:55:45;;;;;;;13.15;8.32;;;;;;;;;;4997349;28;20034;-60
2022/07/31 07:58:12;;;;;;;13.73;8.45;;;;;;;;;;4996451;28;20460;-61
2022/07/31 08:00:39;;;;;;;12.57;7.95;;;;;;;;;;4996334;28;20451;-60
2022/07/31 08:03:05;;;;;;;11.50;7.25;;;;;;;;;;4997773;28;20496;-60
2022/07/31 08:05:32;;;;;;;15.68;8.00;;;;;;;;;;4996147;28;20041;-60
2022/07/31 08:07:59;;;;;;;12.57;7.97;;;;;;;;;;4994880;28;20039;-60
2022/07/31 08:10:25;;;;;;;11.98;7.47;;;;;;;;;;4996397;28;20065;-60
2022/07/31 08:12:53;;;;;;;11.52;7.60;;;;;;;;;;4996057;28;20584;-59
2022/07/31 08:15:20;;;;;;;11.55;7.18;;;;;;;;;;4994745;28;20042;-60
2022/07/31 08:17:46;;;;;;;11.32;7.35;;;;;;;;;;4999326;28;20037;-60
2022/07/31 08:20:13;;;;;;;12.02;7.28;;;;;;;;;;4996006;28;20373;-60
2022/07/31 08:22:40;;;;;;;11.75;7.68;;;;;;;;;;4995936;28;20417;-60
2022/07/31 08:25:07;;;;;;;12.18;7.00;;;;;;;;;;4995224;28;20081;-59
2022/07/31 08:27:33;;;;;;;12.88;7.35;;;;;;;;;;4995399;28;20543;-60
2022/07/31 08:30:01;;;;;;;12.80;7.35;;;;;;;;;;4996364;28;20431;-60
2022/07/31 08:32:28;;;;;;;11.20;7.50;;;;;;;;;;4995766;28;20042;-60
2022/07/31 08:34:55;;;;;;;11.63;7.65;;;;;;;;;;4995385;28;20058;-60
2022/07/31 08:37:22;;;;;;;12.05;7.75;;;;;;;;;;4995041;28;20045;-59
2022/07/31 08:39:49;;;;;;;12.45;8.05;;;;;;;;;;4995006;28;20072;-56
2022/07/31 08:42:16;;;;;;;13.38;7.82;;;;;;;;;;4997079;28;20092;-56
2022/07/31 08:44:44;;;;;;;11.73;7.40;;;;;;;;;;4997756;28;20193;-60
2022/07/31 08:47:11;;;;;;;12.13;7.80;;;;;;;;;;4998089;28;20792;-59
2022/07/31 08:49:48;;;;;;;10.82;7.85;;;;;;;;;;4996429;28;20046;-61
2022/07/31 08:52:17;;;;;;;12.52;7.32;;;;;;;;;;4998262;28;20128;-59
2022/07/31 08:54:45;;;;;;;13.02;7.78;;;;;;;;;;4996744;28;20514;-58
2022/07/31 08:57:12;;;;;;;13.80;7.95;;;;;;;;;;4998530;28;20033;-58
2022/07/31 08:59:42;;;;;;;11.05;7.78;;;;;;;;;;4995673;28;20892;-57
2022/07/31 09:02:10;;;;;;;12.27;7.90;;;;;;;;;;4997822;28;20064;-59
2022/07/31 09:04:37;;;;;;;13.57;8.40;;;;;;;;;;4994964;28;20038;-55
2022/07/31 09:07:04;;;;;;;14.18;9.15;;;;;;;;;;4997516;28;20073;-56
2022/07/31 09:09:31;;;;;;;14.25;9.38;;;;;;;;;;4995782;28;20049;-58
2022/07/31 09:11:58;;;;;;;13.85;8.95;;;;;;;;;;4996952;28;20057;-59
2022/07/31 09:14:26;;;;;;;13.80;8.88;;;;;;;;;;4995701;28;20503;-59
2022/07/31 09:16:53;;;;;;;13.88;8.90;;;;;;;;;;4996925;28;20108;-59
2022/07/31 09:19:21;;;;;;;14.85;8.85;;;;;;;;;;4996136;28;20049;-58
2022/07/31 09:21:47;;;;;;;17.27;9.77;;;;;;;;;;5000925;28;20041;-58
2022/07/31 09:24:27;;;;;;;16.48;11.30;;;;;;;;;;4998054;28;20073;-57
2022/07/31 09:27:02;;;;;;;18.58;12.45;;;;;;;;;;5001251;28;20055;-57
2022/07/31 09:29:39;;;;;;;13.65;9.90;;;;;;;;;;4999986;28;20045;-57
2022/07/31 09:32:13;;;;;;;14.73;9.50;;;;;;;;;;5005028;28;20646;-55
2022/07/31 09:34:40;;;;;;;16.38;9.57;;;;;;;;;;5000389;28;20052;-58
2022/07/31 09:37:08;;;;;;;14.93;9.55;;;;;;;;;;5001069;28;20042;-57
2022/07/31 09:39:36;;;;;;;13.85;9.27;;;;;;;;;;4998718;28;20039;-57
2022/07/31 09:42:03;;;;;;;13.63;9.10;;;;;;;;;;5000628;28;20120;-57
2022/07/31 09:44:37;;;;;;;18.00;9.80;;;;;;;;;;5002161;28;20067;-58
2022/07/31 09:47:05;;;;;;;16.33;10.35;;;;;;;;;;5008967;28;20038;-58
2022/07/31 09:49:35;;;;;;;18.27;10.70;;;;;;;;;;4999391;28;20049;-58
2022/07/31 09:52:02;;;;;;;19.73;11.18;;;;;;;;;;5002125;28;20456;-59
2022/07/31 09:54:30;;;;;;;18.23;11.68;;;;;;;;;;4998347;28;20180;-60
2022/07/31 09:56:57;;;;;;;21.30;11.95;;;;;;;;;;5001192;28;20532;-60
2022/07/31 09:59:25;;;;;;;23.15;12.80;;;;;;;;;;4998183;28;20886;-58
2022/07/31 10:01:52;;;;;;;21.05;12.95;;;;;;;;;;4999609;28;20041;-60
2022/07/31 10:04:21;;;;;;;21.17;12.85;;;;;;;;;;4997181;28;20039;-60
2022/07/31 10:06:49;;;;;;;22.90;12.93;;;;;;;;;;5000189;28;20068;-60
2022/07/31 10:09:17;;;;;;;23.75;13.65;;;;;;;;;;5000063;28;20112;-59
2022/07/31 10:11:45;;;;;;;23.38;13.40;;;;;;;;;;4999173;28;20496;-60
2022/07/31 10:14:15;;;;;;;25.70;13.57;;;;;;;;;;4997924;28;20049;-59
2022/07/31 10:16:43;;;;;;;23.17;13.82;;;;;;;;;;4998586;28;20206;-60
2022/07/31 10:19:12;;;;;;;21.15;13.68;;;;;;;;;;5000475;28;20046;-57
2022/07/31 10:21:43;;;;;;;25.33;13.95;;;;;;;;;;4998227;28;20042;-58
2022/07/31 10:24:11;;;;;;;21.42;13.40;;;;;;;;;;5000994;28;20053;-60
2022/07/31 10:26:38;;;;;;;23.52;13.95;;;;;;;;;;4998138;28;20042;-58
2022/07/31 10:29:04;;;;;;;26.48;14.32;;;;;;;;;;5000828;28;20282;-59
2022/07/31 10:31:31;;;;;;;23.27;14.85;;;;;;;;;;4997658;28;20050;-60
2022/07/31 10:33:58;;;;;;;24.67;14.75;;;;;;;;;;5000678;28;20058;-58
2022/07/31 10:36:29;;;;;;;24.35;14.80;;;;;;;;;;5000820;28;20038;-58
2022/07/31 10:39:16;;;;;;;23.63;14.73;;;;;;;;;;5000710;28;20046;-59
2022/07/31 10:41:49;;;;;;;27.13;15.73;;;;;;;;;;4998445;28;20038;-56
2022/07/31 10:44:15;;;;;;;;;;;;;;;;;;5001111;28;20046;-59
2022/07/31 10:46:42;;;;;;;25.77;15.32;;;;;;;;;;5001176;28;20011;-59
2022/07/31 10:49:08;;;;;;;23.00;14.73;;;;;;;;;;4999791;28;20128;-59
2022/07/31 10:51:45;;;;;;;22.45;14.63;;;;;;;;;;4998579;28;20759;-58
2022/07/31 10:54:13;;;;;;;20.85;13.77;;;;;;;;;;4998375;28;20057;-58
2022/07/31 10:56:47;;;;;;;20.45;14.13;;;;;;;;;;4999713;28;20038;-57
2022/07/31 10:59:13;;;;;;;23.33;14.23;;;;;;;;;;4999564;28;20045;-57
2022/07/31 11:01:47;;;;;;;20.13;14.23;;;;;;;;;;4994842;28;20046;-59
2022/07/31 11:04:14;;;;;;;20.15;13.68;;;;;;;;;;4999660;28;20477;-58
2022/07/31 11:06:43;;;;;;;20.73;13.32;;;;;;;;;;5016474;28;20092;-59
2022/07/31 11:09:10;;;;;;;17.73;12.40;;;;;;;;;;4998297;28;20050;-60
2022/07/31 11:11:36;;;;;;;19.77;13.23;;;;;;;;;;4998726;28;20050;-57
2022/07/31 11:14:03;;;;;;;20.42;12.40;;;;;;;;;;4998804;28;20058;-56
2022/07/31 11:16:30;;;;;;;19.05;12.75;;;;;;;;;;4997147;28;20099;-58
2022/07/31 11:19:00;;;;;;;17.77;12.60;;;;;;;;;;4999410;28;20096;-58
2022/07/31 11:21:34;;;;;;;17.70;11.98;;;;;;;;;;4998082;28;20415;-58
2022/07/31 11:24:01;;;;;;;19.48;12.02;;;;;;;;;;4996940;28;20069;-58
2022/07/31 11:26:28;;;;;;;19.95;11.25;;;;;;;;;;4998219;28;20038;-58
2022/07/31 11:28:54;;;;;;;18.67;12.52;;;;;;;;;;4999380;28;20053;-54
2022/07/31 11:31:28;;;;;;;20.25;12.50;;;;;;;;;;4998469;28;20084;-58
2022/07/31 11:33:55;;;;;;;19.05;11.70;;;;;;;;;;5000960;28;20085;-56
2022/07/31 11:36:23;;;;;;;17.48;11.30;;;;;;;;;;4999948;28;20045;-57
2022/07/31 11:38:51;;;;;;;15.60;11.00;;;;;;;;;;5010832;28;20053;-59
2022/07/31 11:41:20;;;;;;;16.55;10.68;;;;;;;;;;4999383;28;20118;-60
2022/07/31 11:43:47;;;;;;;16.80;10.30;;;;;;;;;;4998434;28;20144;-59
2022/07/31 11:46:19;;;;;;;17.40;10.23;;;;;;;;;;4998709;28;20559;-59
2022/07/31 11:48:45;;;;;;;15.73;10.18;;;;;;;;;;5000376;28;20093;-58
2022/07/31 11:51:17;;;;;;;14.70;10.60;;;;;;;;;;4999888;28;20096;-58
2022/07/31 11:53:44;;;;;;;15.45;9.93;;;;;;;;;;5003110;28;20049;-60
2022/07/31 11:56:11;;;;;;;18.63;10.48;;;;;;;;;;5002960;28;20030;-59
2022/07/31 11:58:40;;;;;;;15.82;10.15;;;;;;;;;;5001509;28;20045;-59
2022/07/31 12:01:06;;;;;;;15.32;10.30;;;;;;;;;;4998746;28;20065;-57
2022/07/31 12:03:35;;;;;;;16.80;10.20;;;;;;;;;;4996915;28;20034;-57
2022/07/31 12:06:02;;;;;;;17.13;10.45;;;;;;;;;;4997937;28;20124;-57
2022/07/31 12:08:29;;;;;;;18.27;10.25;;;;;;;;;;4996861;28;20030;-58
2022/07/31 12:10:56;;;;;;;14.80;10.27;;;;;;;;;;4996215;28;20038;-58
2022/07/31 12:13:24;;;;;;;14.07;9.57;;;;;;;;;;4994605;28;20477;-57
2022/07/31 12:15:58;;;;;;;15.20;9.70;;;;;;;;;;4996552;28;20037;-58
2022/07/31 12:18:26;;;;;;;14.35;9.57;;;;;;;;;;4997186;28;20076;-58
2022/07/31 12:21:00;;;;;;;13.02;8.63;;;;;;;;;;4998040;28;20060;-58
2022/07/31 12:23:38;;;;;;;15.40;8.98;;;;;;;;;;4995866;28;20046;-57
2022/07/31 12:26:04;;;;;;;16.02;8.75;;;;;;;;;;4999123;28;20049;-58
2022/07/31 12:28:31;;;;;;;18.63;9.18;;;;;;;;;;4997369;28;20419;-59
2022/07/31 12:30:59;;;;;;;15.75;8.95;;;;;;;;;;4998495;28;20037;-58
2022/07/31 12:33:29;;;;;;;13.65;8.18;;;;;;;;;;4996557;28;20176;-58
2022/07/31 12:35:55;;;;;;;10.43;7.40;;;;;;;;;;4996934;28;21848;-60
2022/07/31 12:38:26;;;;;;;11.02;7.40;;;;;;;;;;4996696;28;20579;-59
2022/07/31 12:41:05;;;;;;;13.00;7.30;;;;;;;;;;4996887;28;20034;-58
2022/07/31 12:43:31;;;;;;;13.93;8.30;;;;;;;;;;4997397;28;20775;-60
2022/07/31 12:46:04;;;;;;;14.80;7.97;;;;;;;;;;4997796;28;20058;-60
2022/07/31 12:48:33;;;;;;;12.43;7.57;;;;;;;;;;4997927;28;20168;-63
2022/07/31 12:51:02;;;;;;;13.70;7.70;;;;;;;;;;4995351;28;20432;-64
2022/07/31 12:53:29;;;;;;;10.10;7.18;;;;;;;;;;4996269;28;20049;-57
2022/07/31 12:55:56;;;;;;;11.20;7.43;;;;;;;;;;4999287;28;20041;-60
2022/07/31 12:58:23;;;;;;;12.35;7.60;;;;;;;;;;5001385;28;20474;-60
2022/07/31 13:00:49;;;;;;;11.77;7.18;;;;;;;;;;4999146;28;20041;-60
2022/07/31 13:03:16;;;;;;;13.10;8.07;;;;;;;;;;5001352;28;20034;-60
2022/07/31 13:05:43;;;;;;;12.65;7.80;;;;;;;;;;4998544;28;20042;-59
2022/07/31 13:08:09;;;;;;;12.65;7.35;;;;;;;;;;5001344;28;20045;-57
2022/07/31 13:10:36;;;;;;;12.23;8.02;;;;;;;;;;5000796;28;20034;-59
2022/07/31 13:13:02;;;;;;;11.80;7.38;;;;;;;;;;5001057;28;20506;-59
2022/07/31 13:15:29;;;;;;;16.38;8.05;;;;;;;;;;4999714;28;20141;-62
2022/07/31 13:17:57;;;;;;;12.23;8.10;;;;;;;;;;5001972;28;20059;-60
2022/07/31 13:20:23;;;;;;;13.70;8.60;;;;;;;;;;5002106;28;20114;-61
2022/07/31 13:22:50;;;;;;;20.60;8.50;;;;;;;;;;5000831;28;20038;-60
2022/07/31 13:25:18;;;;;;;14.80;9.55;;;;;;;;;;5002249;28;20042;-62
2022/07/31 13:27:45;;;;;;;14.38;9.18;;;;;;;;;;5006544;28;20042;-60
2022/07/31 13:30:13;;;;;;;16.15;9.88;;;;;;;;;;5007492;28;20038;-60
2022/07/31 13:32:39;;;;;;;16.92;9.77;;;;;;;;;;5019585;28;20053;-58
2022/07/31 13:35:07;;;;;;;14.93;9.73;;;;;;;;;;5024768;28;20053;-60
2022/07/31 13:37:33;;;;;;;16.52;10.30;;;;;;;;;;5015723;28;20048;-60
2022/07/31 13:40:00;;;;;;;17.58;10.02;;;;;;;;;;5003277;28;20046;-60
2022/07/31 13:42:26;;;;;;;12.85;8.88;;;;;;;;;;5002303;28;20044;-59
2022/07/31 13:44:55;;;;;;;16.75;9.88;;;;;;;;;;5012039;28;20791;-59
2022/07/31 13:47:21;;;;;;;15.73;10.00;;;;;;;;;;5001943;28;20033;-59
2022/07/31 13:49:48;;;;;;;14.63;9.38;;;;;;;;;;5000078;28;20472;-58
2022/07/31 13:52:14;;;;;;;12.85;8.82;;;;;;;;;;5002816;28;20118;-60
2022/07/31 13:54:41;;;;;;;12.63;8.77;;;;;;;;;;5017337;28;20049;-59
2022/07/31 13:57:07;;;;;;;12.32;8.10;;;;;;;;;;5007726;28;20523;-56
2022/07/31 13:59:34;;;;;;;12.30;7.85;;;;;;;;;;5039600;28;20038;-59
2022/07/31 14:02:01;;;;;;;11.15;7.50;;;;;;;;;;5019969;28;20045;-60
2022/07/31 14:04:27;;;;;;;12.35;7.90;;;;;;;;;;5021506;28;20595;-60
2022/07/31 14:06:54;;;;;;;12.15;7.82;;;;;;;;;;5008106;28;20154;-59
2022/07/31 14:09:21;;;;;;;11.13;7.95;;;;;;;;;;4999798;28;20697;-60
2022/07/31 14:11:47;;;;;;;15.68;10.10;;;;;;;;;;5001858;28;20040;-60
2022/07/31 14:14:14;;;;;;;15.93;9.77;;;;;;;;;;5016151;28;20140;-61
2022/07/31 14:16:41;;;;;;;15.93;10.80;;;;;;;;;;5001067;28;20037;-59
2022/07/31 14:19:08;;;;;;;16.52;10.85;;;;;;;;;;5001935;28;20034;-61
2022/07/31 14:21:34;;;;;;;17.92;10.50;;;;;;;;;;5000045;28;20042;-60
2022/07/31 14:24:01;;;;;;;16.25;10.13;;;;;;;;;;4998025;28;20093;-60
2022/07/31 14:26:27;;;;;;;17.13;10.82;;;;;;;;;;4999432;28;20123;-60
2022/07/31 14:28:54;;;;;;;15.88;9.30;;;;;;;;;;4999814;28;20049;-60
2022/07/31 14:31:21;;;;;;;13.57;9.68;;;;;;;;;;5000253;28;20034;-60
2022/07/31 14:33:47;;;;;;;14.38;9.65;;;;;;;;;;5001180;28;20549;-60